Time;durP1;ratioP1;P1;durP2;ratioP2;P2;SDS_P1;SDS_P2;PMS_P1;PMS_P2;Temp;Humidity;BMP_temperature;BMP_pressure;BME280_temperature;BME280_humidity;BME280_pressure;Samples;Min_cycle;Max_cycle;Signal;HPM_P1;HPM_P2
2022/08/09 00:01:47;;;;;;;2.78;1.40;;;;;;;19.17;67.04;100531.63;4898814;29;20036;-79
2022/08/09 00:04:15;;;;;;;3.20;1.70;;;;;;;19.07;67.17;100516.06;4913982;29;20087;-79
2022/08/09 00:06:40;;;;;;;3.10;1.75;;;;;;;19.05;67.41;100513.44;4909947;29;20062;-79
2022/08/09 00:09:06;;;;;;;2.20;1.27;;;;;;;19.10;66.90;100529.34;4917068;29;20056;-79
2022/08/09 00:11:31;;;;;;;2.17;1.40;;;;;;;18.99;65.61;100523.72;4893528;29;20554;-79
2022/08/09 00:13:56;;;;;;;4.22;1.40;;;;;;;18.84;65.54;100493.16;4898734;29;20051;-79
2022/08/09 00:16:22;;;;;;;2.38;1.50;;;;;;;19.01;66.20;100529.91;4898534;29;20399;-79
2022/08/09 00:18:48;;;;;;;2.10;1.20;;;;;;;18.93;65.48;100516.00;4899072;29;20818;-79
2022/08/09 00:21:13;;;;;;;5.00;1.73;;;;;;;18.92;66.38;100516.97;4882132;29;20051;-79
2022/08/09 00:23:39;;;;;;;3.67;1.77;;;;;;;18.90;65.15;100502.69;4899920;29;20033;-79
2022/08/09 00:26:07;;;;;;;1.95;1.40;;;;;;;18.87;65.25;100494.78;4899783;29;20032;-79
2022/08/09 00:28:34;;;;;;;1.90;1.27;;;;;;;18.93;64.82;100508.78;4899356;29;20473;-79
2022/08/09 00:30:59;;;;;;;2.10;1.33;;;;;;;18.89;66.03;100495.56;4898906;29;20040;-79
2022/08/09 00:33:25;;;;;;;3.75;1.17;;;;;;;18.88;66.11;100496.53;4907755;29;20036;-79
2022/08/09 00:35:51;;;;;;;2.25;1.23;;;;;;;18.89;66.36;100498.28;4916421;29;20028;-79
2022/08/09 00:38:17;;;;;;;10.50;2.25;;;;;;;18.91;66.14;100509.84;4900108;29;20035;-79
2022/08/09 00:40:42;;;;;;;3.30;1.35;;;;;;;18.89;66.24;100515.31;4917139;29;20028;-79
2022/08/09 00:43:08;;;;;;;1.38;1.20;;;;;;;18.84;66.08;100519.22;4917920;29;20032;-79
2022/08/09 00:45:34;;;;;;;2.10;1.13;;;;;;;18.86;66.54;100517.31;4912444;29;20062;-79
2022/08/09 00:48:00;;;;;;;3.20;1.40;;;;;;;18.74;65.91;100491.06;4889833;29;20426;-79
2022/08/09 00:50:26;;;;;;;1.73;1.30;;;;;;;18.86;66.61;100515.47;4896975;29;20031;-79
2022/08/09 00:52:52;;;;;;;2.25;1.25;;;;;;;18.70;66.96;100497.63;4897754;29;20381;-79
2022/08/09 00:55:18;;;;;;;2.55;1.33;;;;;;;18.77;66.93;100523.25;4897324;29;20036;-79
2022/08/09 00:57:44;;;;;;;3.63;1.70;;;;;;;18.62;66.94;100513.34;4881357;29;20036;-79
2022/08/09 01:00:11;;;;;;;3.25;1.17;;;;;;;18.67;66.98;100531.00;4887898;23;20053;-62
2022/08/09 01:02:41;;;;;;;3.38;1.63;;;;;;;18.69;66.98;100529.09;4866546;29;20398;-62
2022/08/09 01:05:40;;;;;;;2.38;1.38;;;;;;;18.69;67.43;100526.38;4879361;29;20520;-62
2022/08/09 01:08:41;;;;;;;2.28;1.30;;;;;;;18.67;67.79;100522.03;4874059;29;20073;-62
2022/08/09 01:11:18;;;;;;;2.40;1.40;;;;;;;18.63;67.76;100531.25;4878710;29;20029;-62
2022/08/09 01:13:54;;;;;;;2.33;1.50;;;;;;;18.61;67.61;100530.47;4879287;29;20422;-62
2022/08/09 01:16:23;;;;;;;2.05;1.30;;;;;;;18.61;68.34;100528.66;4879124;29;20452;-62
2022/08/09 01:18:51;;;;;;;3.92;1.45;;;;;;;18.63;66.97;100525.88;4878924;29;20025;-62
2022/08/09 01:21:33;;;;;;;5.43;1.42;;;;;;;18.61;66.38;100517.00;4878740;29;20029;-62
2022/08/09 01:24:12;;;;;;;4.30;1.50;;;;;;;18.60;67.05;100526.06;4878683;29;20033;-62
2022/08/09 01:26:56;;;;;;;4.82;2.45;;;;;;;18.56;67.52;100530.75;4878638;29;20505;-62
2022/08/09 01:29:50;;;;;;;2.65;1.45;;;;;;;18.51;68.25;100523.88;4878484;29;20031;-62
2022/08/09 01:32:20;;;;;;;1.63;1.25;;;;;;;18.54;67.70;100531.78;4874808;29;20033;-62
2022/08/09 01:34:47;;;;;;;2.45;1.60;;;;;;;18.51;67.44;100523.88;4878668;29;20029;-62
2022/08/09 01:37:15;;;;;;;4.47;1.52;;;;;;;18.54;67.30;100534.47;4878378;29;20129;-62
2022/08/09 01:39:43;;;;;;;3.85;1.38;;;;;;;18.55;66.90;100533.53;4878319;29;20041;-62
2022/08/09 01:42:09;;;;;;;3.00;1.42;;;;;;;18.54;66.52;100531.78;4878173;29;20045;-62
2022/08/09 01:44:36;;;;;;;2.95;1.70;;;;;;;18.53;66.13;100540.81;4878388;29;20039;-62
2022/08/09 01:47:03;;;;;;;2.30;1.20;;;;;;;18.44;66.85;100530.56;4877453;29;20044;-62
2022/08/09 01:49:32;;;;;;;3.88;1.75;;;;;;;18.55;66.25;100539.75;4878424;29;20032;-62
2022/08/09 01:52:04;;;;;;;4.95;1.58;;;;;;;18.57;66.24;100531.59;4888076;29;20035;-62
2022/08/09 01:54:34;;;;;;;2.13;1.35;;;;;;;18.51;66.37;100529.25;4885201;29;20489;-62
2022/08/09 01:57:06;;;;;;;2.10;1.50;;;;;;;18.57;66.01;100542.38;4877281;29;20029;-62
2022/08/09 01:59:33;;;;;;;2.08;1.38;;;;;;;18.55;65.76;100547.00;4885119;29;20044;-62
2022/08/09 02:01:59;;;;;;;1.58;1.13;;;;;;;18.54;65.90;100542.53;4895628;29;20036;-62
2022/08/09 02:04:25;;;;;;;4.60;1.30;;;;;;;18.47;64.67;100544.72;4895875;29;20071;-62
2022/08/09 02:07:07;;;;;;;2.05;1.20;;;;;;;18.52;64.57;100539.94;4896548;29;20044;-62
2022/08/09 02:09:40;;;;;;;2.80;1.60;;;;;;;18.56;63.87;100541.53;4913495;29;20024;-62
2022/08/09 02:12:08;;;;;;;2.47;1.23;;;;;;;18.53;63.98;100541.69;4915408;29;20401;-62
2022/08/09 02:14:36;;;;;;;2.58;1.67;;;;;;;18.57;63.76;100547.75;4915443;29;20087;-62
2022/08/09 02:17:03;;;;;;;2.83;1.23;;;;;;;18.59;63.07;100556.63;4915186;29;20036;-62
2022/08/09 02:19:28;;;;;;;4.43;1.35;;;;;;;18.58;61.98;100560.28;4915011;29;20043;-62
2022/08/09 02:21:58;;;;;;;2.17;1.38;;;;;;;18.55;61.54;100555.94;4897244;29;20131;-62
2022/08/09 02:24:34;;;;;;;2.03;1.50;;;;;;;18.57;62.11;100558.53;4896321;29;20125;-62
2022/08/09 02:27:03;;;;;;;1.80;1.40;;;;;;;18.55;62.35;100564.00;4896647;29;20052;-62
2022/08/09 02:29:31;;;;;;;4.47;1.45;;;;;;;18.51;62.97;100561.59;4896327;29;20172;-62
2022/08/09 02:32:00;;;;;;;1.70;1.20;;;;;;;18.45;63.11;100561.94;4896091;29;20056;-62
2022/08/09 02:34:31;;;;;;;1.85;1.40;;;;;;;18.45;63.13;100561.94;4896016;29;20489;-62
2022/08/09 02:36:59;;;;;;;3.95;2.10;;;;;;;18.37;62.90;100557.81;4896210;29;20024;-62
2022/08/09 02:39:29;;;;;;;5.78;1.42;;;;;;;18.35;63.16;100561.56;4896304;29;20384;-62
2022/08/09 02:42:09;;;;;;;2.08;1.33;;;;;;;18.30;64.15;100560.94;4896454;29;20027;-62
2022/08/09 02:44:41;;;;;;;4.43;2.10;;;;;;;18.27;63.91;100563.78;4897527;29;20028;-62
2022/08/09 02:47:15;;;;;;;3.92;2.25;;;;;;;18.21;63.70;100551.53;4895992;29;20032;-62
2022/08/09 02:49:53;;;;;;;2.83;1.80;;;;;;;18.26;64.21;100568.31;4895994;29;20393;-62
2022/08/09 02:52:19;;;;;;;3.65;1.65;;;;;;;18.20;64.33;100559.72;4896021;29;20036;-62
2022/08/09 02:54:47;;;;;;;5.07;1.90;;;;;;;18.15;64.88;100568.00;4895780;29;20485;-62
2022/08/09 02:57:15;;;;;;;3.03;1.80;;;;;;;18.08;65.23;100569.34;4895956;29;20428;-63
2022/08/09 02:59:41;;;;;;;4.00;1.67;;;;;;;18.04;65.15;100575.81;4895443;29;20052;-62
2022/08/09 03:02:08;;;;;;;2.20;1.38;;;;;;;18.04;65.17;100575.81;4894948;29;20421;-62
2022/08/09 03:04:36;;;;;;;6.90;1.77;;;;;;;18.04;64.86;100564.16;4895506;29;20342;-63
2022/08/09 03:07:03;;;;;;;3.88;1.75;;;;;;;18.00;65.30;100573.38;4895026;29;20746;-62
2022/08/09 03:09:31;;;;;;;2.70;1.80;;;;;;;17.96;64.38;100567.28;4894717;29;20412;-62
2022/08/09 03:11:58;;;;;;;3.88;1.70;;;;;;;17.95;63.97;100565.56;4894913;29;20039;-62
2022/08/09 03:14:25;;;;;;;3.33;1.40;;;;;;;17.93;64.33;100570.16;4895502;29;20032;-63
2022/08/09 03:16:53;;;;;;;4.40;1.63;;;;;;;17.92;64.06;100564.84;4894945;29;20036;-62
2022/08/09 03:19:21;;;;;;;4.28;1.77;;;;;;;17.92;64.35;100564.84;4894456;29;20032;-62
2022/08/09 03:21:49;;;;;;;4.65;1.85;;;;;;;17.97;64.77;100563.63;4894642;29;20032;-62
2022/08/09 03:24:16;;;;;;;4.40;1.75;;;;;;;17.99;64.80;100566.28;4894825;29;20476;-62
2022/08/09 03:26:43;;;;;;;2.95;1.35;;;;;;;18.01;64.70;100567.91;4894835;29;20108;-62
2022/08/09 03:29:09;;;;;;;5.70;2.13;;;;;;;17.96;65.10;100572.69;4894314;29;20088;-62
2022/08/09 03:31:36;;;;;;;5.25;1.42;;;;;;;17.95;64.83;100562.88;4895176;29;20032;-62
2022/08/09 03:34:03;;;;;;;4.85;1.70;;;;;;;17.90;65.41;100567.63;4895758;29;20453;-62
2022/08/09 03:36:29;;;;;;;6.22;1.63;;;;;;;17.89;65.64;100571.25;4895408;29;20043;-63
2022/08/09 03:38:55;;;;;;;2.20;1.58;;;;;;;17.83;65.80;100565.34;4895432;29;20040;-63
2022/08/09 03:41:20;;;;;;;3.42;1.88;;;;;;;17.77;66.55;100563.84;4895625;29;20067;-62
2022/08/09 03:43:46;;;;;;;3.55;1.63;;;;;;;17.80;66.04;100560.13;4895567;29;20123;-62
2022/08/09 03:46:12;;;;;;;12.02;2.20;;;;;;;17.77;66.20;100563.84;4895228;29;20063;-62
2022/08/09 03:48:38;;;;;;;2.72;1.80;;;;;;;17.76;66.62;100570.16;4895494;29;20044;-62
2022/08/09 03:51:07;;;;;;;2.05;1.65;;;;;;;17.74;67.58;100572.06;4895155;29;20465;-62
2022/08/09 03:53:34;;;;;;;2.85;1.80;;;;;;;17.75;67.40;100567.56;4876769;29;20127;-62
2022/08/09 03:56:00;;;;;;;4.07;1.85;;;;;;;17.65;67.94;100577.94;4895935;29;20025;-63
2022/08/09 03:58:26;;;;;;;5.45;1.80;;;;;;;17.63;67.75;100584.34;4895240;29;20036;-62
2022/08/09 04:00:53;;;;;;;2.05;1.50;;;;;;;17.62;68.16;100583.50;4895286;29;20063;-63
2022/08/09 04:03:19;;;;;;;3.03;1.70;;;;;;;17.60;68.35;100577.31;4895255;29;20025;-64
2022/08/09 04:05:45;;;;;;;2.65;1.77;;;;;;;17.61;68.84;100587.13;4895129;29;20433;-63
2022/08/09 04:08:11;;;;;;;5.55;1.88;;;;;;;17.64;68.26;100586.09;4895436;29;20032;-63
2022/08/09 04:10:36;;;;;;;3.97;2.30;;;;;;;17.64;68.53;100592.38;4897262;29;20485;-63
2022/08/09 04:13:08;;;;;;;3.30;1.73;;;;;;;17.66;68.42;100585.06;4898716;29;20028;-63
2022/08/09 04:15:35;;;;;;;4.57;2.03;;;;;;;17.65;69.11;100595.91;4914693;29;20060;-63
2022/08/09 04:18:01;;;;;;;6.60;2.05;;;;;;;17.65;69.09;100599.47;4903056;29;20058;-63
2022/08/09 04:20:26;;;;;;;2.67;1.95;;;;;;;17.64;68.76;100597.75;4896523;29;20037;-63
2022/08/09 04:22:52;;;;;;;4.10;1.80;;;;;;;17.71;68.24;100601.84;4896667;29;20029;-63
2022/08/09 04:25:17;;;;;;;2.63;1.85;;;;;;;17.73;69.07;100597.25;4896356;29;20057;-63
2022/08/09 04:27:43;;;;;;;2.97;2.00;;;;;;;17.69;68.98;100600.19;4896475;29;20028;-63
2022/08/09 04:30:11;;;;;;;2.83;1.70;;;;;;;17.71;69.24;100609.06;4896668;29;20489;-63
2022/08/09 04:32:37;;;;;;;9.32;2.63;;;;;;;17.67;69.02;100608.34;4896499;29;20376;-63
2022/08/09 04:35:07;;;;;;;6.88;2.15;;;;;;;17.65;69.29;100612.94;4898211;29;20037;-63
2022/08/09 04:37:33;;;;;;;5.63;2.08;;;;;;;17.66;69.55;100606.59;4898295;29;20076;-63
2022/08/09 04:39:58;;;;;;;5.93;2.13;;;;;;;17.67;68.98;100611.03;4898269;29;20060;-63
2022/08/09 04:42:28;;;;;;;4.30;1.83;;;;;;;17.73;68.77;100613.41;4898314;29;20076;-64
2022/08/09 04:44:57;;;;;;;4.05;2.03;;;;;;;17.77;69.19;100616.81;4900429;29;20032;-63
2022/08/09 04:47:23;;;;;;;2.50;1.60;;;;;;;17.80;68.83;100628.28;4897889;29;20587;-63
2022/08/09 04:49:49;;;;;;;3.80;2.38;;;;;;;17.81;69.29;100623.75;4898141;29;20076;-63
2022/08/09 04:52:15;;;;;;;4.20;1.67;;;;;;;17.84;69.14;100629.84;4897870;29;20484;-63
2022/08/09 04:54:40;;;;;;;6.35;1.98;;;;;;;17.90;70.15;100626.84;4897900;29;20040;-63
2022/08/09 04:57:06;;;;;;;5.63;2.25;;;;;;;17.99;69.71;100620.97;4898139;29;20025;-63
2022/08/09 04:59:31;;;;;;;5.75;2.72;;;;;;;18.05;69.58;100628.72;4897479;29;20568;-63
2022/08/09 05:01:57;;;;;;;6.13;1.88;;;;;;;18.13;69.58;100631.00;4897752;29;20100;-63
2022/08/09 05:04:22;;;;;;;1.90;1.70;;;;;;;18.20;68.55;100629.72;4897623;29;20064;-63
2022/08/09 05:06:48;;;;;;;3.15;2.05;;;;;;;18.23;69.26;100635.81;4897850;29;20031;-63
2022/08/09 05:09:13;;;;;;;3.55;1.60;;;;;;;18.28;69.82;100639.13;4897859;29;20111;-63
2022/08/09 05:11:38;;;;;;;6.72;1.88;;;;;;;18.32;70.16;100639.81;4897384;29;20024;-63
2022/08/09 05:14:04;;;;;;;2.95;1.77;;;;;;;18.38;69.88;100634.13;4897764;29;20170;-63
2022/08/09 05:16:29;;;;;;;3.97;1.75;;;;;;;18.47;69.74;100643.56;4897687;29;20384;-63
2022/08/09 05:18:55;;;;;;;3.58;1.67;;;;;;;18.55;69.22;100641.31;4897265;29;20028;-63
2022/08/09 05:21:21;;;;;;;3.63;2.05;;;;;;;18.68;68.65;100642.38;4896256;29;20099;-63
2022/08/09 05:23:46;;;;;;;3.03;2.03;;;;;;;18.78;68.07;100648.97;4897403;29;20036;-63
2022/08/09 05:26:11;;;;;;;2.63;1.98;;;;;;;18.90;68.32;100653.66;4897495;29;20112;-63
2022/08/09 05:28:37;;;;;;;2.90;1.83;;;;;;;19.05;68.04;100650.09;4897451;29;20439;-63
2022/08/09 05:31:03;;;;;;;3.80;1.80;;;;;;;19.16;67.62;100647.69;4896676;29;20073;-63
2022/08/09 05:33:28;;;;;;;4.53;1.90;;;;;;;19.32;66.24;100651.25;4897320;29;20040;-63
2022/08/09 05:35:54;;;;;;;5.72;1.88;;;;;;;19.50;66.41;100655.56;4897237;29;20040;-63
2022/08/09 05:38:19;;;;;;;4.40;1.88;;;;;;;19.65;65.17;100649.28;4897208;29;20107;-63
2022/08/09 05:40:45;;;;;;;5.18;2.05;;;;;;;19.83;64.19;100647.28;4896893;29;20036;-63
2022/08/09 05:43:10;;;;;;;5.15;1.70;;;;;;;20.07;63.66;100653.88;4896761;29;20035;-63
2022/08/09 05:45:36;;;;;;;3.00;1.65;;;;;;;20.23;62.58;100658.28;4899376;29;20495;-63
2022/08/09 05:48:01;;;;;;;3.55;1.73;;;;;;;20.36;62.35;100653.84;4896456;29;20060;-63
2022/08/09 05:50:27;;;;;;;3.25;1.60;;;;;;;20.52;61.14;100656.47;4897124;29;20028;-63
2022/08/09 05:52:53;;;;;;;2.95;1.50;;;;;;;20.70;59.66;100658.00;4897066;29;20056;-63
2022/08/09 05:55:19;;;;;;;3.25;1.70;;;;;;;20.88;58.35;100654.13;4896933;29;20061;-63
2022/08/09 05:57:44;;;;;;;6.95;2.00;;;;;;;20.98;57.48;100667.94;4896645;29;20033;-63
2022/08/09 06:00:11;;;;;;;5.05;1.73;;;;;;;21.13;57.13;100667.81;4896386;29;20052;-64
2022/08/09 06:02:38;;;;;;;2.47;1.45;;;;;;;21.39;56.37;100657.97;4896887;29;20042;-63
2022/08/09 06:05:04;;;;;;;2.38;1.40;;;;;;;21.58;55.50;100670.16;4896737;29;20054;-63
2022/08/09 06:07:29;;;;;;;4.95;2.20;;;;;;;21.61;55.47;100663.69;4896476;29;20454;-64
2022/08/09 06:09:55;;;;;;;4.57;1.88;;;;;;;21.63;54.83;100678.00;4896324;29;20079;-64
2022/08/09 06:12:21;;;;;;;4.85;1.88;;;;;;;21.68;54.94;100671.28;4896194;29;20087;-64
2022/08/09 06:14:46;;;;;;;3.65;1.45;;;;;;;21.85;55.44;100675.59;4896366;29;20552;-63
2022/08/09 06:17:12;;;;;;;5.18;1.70;;;;;;;21.96;54.37;100675.72;4898492;29;20497;-63
2022/08/09 06:19:37;;;;;;;5.95;1.75;;;;;;;22.10;54.43;100686.47;4886319;29;20088;-63
2022/08/09 06:22:04;;;;;;;4.25;1.75;;;;;;;22.15;52.35;100674.34;4881169;29;20033;-64
2022/08/09 06:24:29;;;;;;;5.45;1.77;;;;;;;22.30;52.96;100675.13;4889055;29;20039;-63
2022/08/09 06:26:55;;;;;;;4.10;1.52;;;;;;;22.46;51.73;100681.19;4894927;29;20024;-63
2022/08/09 06:29:20;;;;;;;3.55;1.50;;;;;;;22.67;51.56;100685.09;4894985;29;20040;-63
2022/08/09 06:31:46;;;;;;;3.50;1.23;;;;;;;22.84;50.76;100687.47;4895274;29;20521;-63
2022/08/09 06:34:11;;;;;;;2.80;1.48;;;;;;;23.11;50.82;100690.88;4895849;29;20175;-63
2022/08/09 06:36:36;;;;;;;2.78;1.40;;;;;;;23.23;50.29;100700.84;4896242;29;20119;-63
2022/08/09 06:39:02;;;;;;;2.75;1.75;;;;;;;23.28;49.36;100695.97;4896155;29;20024;-63
2022/08/09 06:41:28;;;;;;;4.88;1.42;;;;;;;23.36;49.31;100696.28;4891344;29;20037;-63
2022/08/09 06:43:53;;;;;;;4.22;1.70;;;;;;;23.42;48.46;100695.84;4876886;29;20025;-64
2022/08/09 06:46:19;;;;;;;2.30;1.38;;;;;;;23.52;48.04;100703.28;4893191;29;20168;-63
2022/08/09 06:48:44;;;;;;;3.13;1.42;;;;;;;23.61;48.10;100705.31;4888827;29;20059;-63
2022/08/09 06:51:11;;;;;;;3.08;1.30;;;;;;;23.74;48.12;100706.13;4893664;29;20127;-63
2022/08/09 06:53:37;;;;;;;2.22;1.40;;;;;;;23.81;48.39;100661.19;4893997;29;20091;-63
2022/08/09 06:56:03;;;;;;;2.15;1.40;;;;;;;24.30;47.04;100694.50;4894675;29;20052;-63
2022/08/09 06:58:28;;;;;;;2.40;1.40;;;;;;;24.51;47.03;100692.81;4894713;29;20033;-63
2022/08/09 07:00:54;;;;;;;2.92;1.90;;;;;;;24.72;46.20;100699.28;4893288;29;20053;-64
2022/08/09 07:03:20;;;;;;;3.72;1.65;;;;;;;24.88;45.75;100702.50;4893480;29;20104;-63
2022/08/09 07:05:46;;;;;;;1.85;1.10;;;;;;;25.03;44.94;100703.97;4893446;29;20047;-64
2022/08/09 07:08:12;;;;;;;3.58;1.20;;;;;;;25.19;45.41;100707.19;4893202;29;20029;-62
2022/08/09 07:10:37;;;;;;;2.00;1.55;;;;;;;25.36;44.64;100703.97;4893575;29;20036;-63
2022/08/09 07:13:03;;;;;;;2.08;1.20;;;;;;;25.54;44.38;100710.63;4893873;29;20381;-62
2022/08/09 07:15:28;;;;;;;4.50;1.40;;;;;;;25.68;43.95;100715.75;4893754;29;20076;-62
2022/08/09 07:17:54;;;;;;;4.70;1.27;;;;;;;25.93;44.01;100714.56;4893852;29;20060;-62
2022/08/09 07:20:19;;;;;;;4.00;1.50;;;;;;;26.24;43.86;100713.72;4893978;29;20037;-63
2022/08/09 07:22:45;;;;;;;3.92;1.70;;;;;;;26.51;41.82;100710.44;4894351;29;20043;-63
2022/08/09 07:25:11;;;;;;;1.92;1.30;;;;;;;26.79;41.71;100713.38;4893602;29;20477;-63
2022/08/09 07:27:37;;;;;;;2.40;1.30;;;;;;;27.00;40.68;100714.19;4894235;29;20047;-62
2022/08/09 07:30:03;;;;;;;3.42;1.30;;;;;;;27.17;41.21;100710.81;4893327;29;20052;-62
2022/08/09 07:32:29;;;;;;;3.67;1.30;;;;;;;27.43;40.77;100710.34;4894236;29;20070;-62
2022/08/09 07:34:55;;;;;;;2.58;1.20;;;;;;;27.82;42.00;100718.50;4892877;29;20485;-62
2022/08/09 07:37:20;;;;;;;5.13;1.35;;;;;;;28.13;40.69;100711.91;4892730;29;20139;-63
2022/08/09 07:39:45;;;;;;;4.45;1.58;;;;;;;28.41;38.94;100715.63;4891892;29;20131;-63
2022/08/09 07:42:11;;;;;;;3.63;1.50;;;;;;;28.55;39.18;100717.91;4898498;29;20032;-63
2022/08/09 07:44:36;;;;;;;2.30;1.40;;;;;;;28.64;38.81;100716.16;4892733;29;20036;-64
2022/08/09 07:47:02;;;;;;;4.20;1.33;;;;;;;28.84;38.63;100712.38;4895816;29;20048;-63
2022/08/09 07:49:27;;;;;;;8.63;1.42;;;;;;;29.03;39.09;100713.16;4896031;29;20036;-63
2022/08/09 07:51:52;;;;;;;1.95;1.23;;;;;;;29.30;38.98;100709.59;4895417;29;20108;-63
2022/08/09 07:54:18;;;;;;;4.88;1.13;;;;;;;29.67;38.27;100710.41;4882045;29;20501;-63
2022/08/09 07:56:43;;;;;;;1.95;1.20;;;;;;;30.02;37.81;100712.31;4895630;29;20044;-63
2022/08/09 07:59:09;;;;;;;4.70;1.65;;;;;;;30.24;38.04;100718.22;4894993;29;20056;-63
2022/08/09 08:01:34;;;;;;;5.60;1.58;;;;;;;30.51;36.30;100718.09;4892876;29;20032;-63
2022/08/09 08:04:01;;;;;;;4.80;1.65;;;;;;;30.81;37.02;100717.66;4896242;29;20084;-63
2022/08/09 08:06:27;;;;;;;4.80;1.20;;;;;;;30.64;36.48;100720.44;4878016;29;20057;-63
2022/08/09 08:08:52;;;;;;;6.20;1.48;;;;;;;30.74;36.09;100722.03;4891153;29;20127;-63
2022/08/09 08:11:18;;;;;;;10.82;3.15;;;;;;;30.61;37.68;100718.03;4884363;29;20013;-66
2022/08/09 08:13:43;;;;;;;3.47;1.90;;;;;;;30.78;38.34;100715.25;4877692;29;20402;-65
2022/08/09 08:16:09;;;;;;;2.85;1.45;;;;;;;30.92;36.10;100720.13;4877765;29;20033;-66
2022/08/09 08:18:34;;;;;;;3.70;1.23;;;;;;;31.07;36.89;100716.78;4891654;29;20059;-65
2022/08/09 08:21:00;;;;;;;2.50;1.27;;;;;;;31.29;36.65;100721.69;4895292;29;20049;-65
2022/08/09 08:23:26;;;;;;;3.90;1.30;;;;;;;31.42;35.17;100722.97;4896243;29;20114;-66
2022/08/09 08:25:51;;;;;;;2.88;1.40;;;;;;;31.46;36.25;100724.38;4891937;29;20358;-66
2022/08/09 08:28:18;;;;;;;3.40;1.60;;;;;;;31.47;34.86;100720.59;4893039;29;20036;-66
2022/08/09 08:30:44;;;;;;;5.32;1.40;;;;;;;31.50;35.32;100716.66;4895953;29;20473;-65
2022/08/09 08:33:10;;;;;;;3.58;1.30;;;;;;;31.69;34.77;100717.25;4897299;29;20044;-66
2022/08/09 08:35:35;;;;;;;3.67;1.05;;;;;;;31.28;34.83;100719.97;4897576;29;20024;-66
2022/08/09 08:38:01;;;;;;;4.25;1.55;;;;;;;31.57;35.39;100720.44;4897414;29;20032;-65
2022/08/09 08:40:26;;;;;;;4.75;1.65;;;;;;;31.80;35.10;100716.03;4897777;29;20037;-65
2022/08/09 08:42:52;;;;;;;2.78;1.42;;;;;;;31.72;34.45;100713.28;4880079;29;20033;-66
2022/08/09 08:45:28;;;;;;;7.85;1.52;;;;;;;31.68;34.38;100718.25;4896976;29;20045;-67
2022/08/09 08:47:53;;;;;;;3.30;1.45;;;;;;;31.80;34.60;100721.53;4895081;29;20103;-66
2022/08/09 08:50:19;;;;;;;3.08;1.35;;;;;;;31.91;35.25;100696.50;4898553;29;20064;-66
2022/08/09 08:52:47;;;;;;;2.22;1.30;;;;;;;32.14;34.10;100717.69;4896380;29;20024;-66
2022/08/09 08:55:14;;;;;;;2.65;1.40;;;;;;;32.36;34.20;100713.38;4891409;29;20033;-67
2022/08/09 08:57:40;;;;;;;4.03;1.30;;;;;;;32.73;34.04;100711.00;4897525;29;20036;-67
2022/08/09 09:00:09;;;;;;;4.00;1.50;;;;;;;32.65;33.68;100724.78;4896518;29;20052;-68
2022/08/09 09:02:35;;;;;;;3.40;1.50;;;;;;;32.72;32.70;100716.69;4888724;29;20140;-67
2022/08/09 09:05:00;;;;;;;5.20;1.38;;;;;;;33.15;33.16;100711.59;4896994;29;20056;-67
2022/08/09 09:07:29;;;;;;;2.22;1.38;;;;;;;33.50;32.82;100726.81;4896935;29;20052;-67
2022/08/09 09:09:55;;;;;;;6.28;2.25;;;;;;;33.41;32.74;100715.97;4897064;29;20686;-67
2022/08/09 09:12:27;;;;;;;2.40;1.52;;;;;;;33.13;32.44;100716.41;4896815;29;20046;-67
2022/08/09 09:14:53;;;;;;;3.88;1.50;;;;;;;33.15;32.56;100717.09;4897202;29;20627;-67
2022/08/09 09:17:19;;;;;;;4.30;1.50;;;;;;;33.44;31.87;100715.63;4896247;29;20107;-68
2022/08/09 09:19:45;;;;;;;3.33;1.85;;;;;;;33.51;31.98;100706.44;4896410;29;20112;-67
2022/08/09 09:22:13;;;;;;;2.72;1.48;;;;;;;33.73;33.31;100704.78;4896598;29;20035;-67
2022/08/09 09:24:40;;;;;;;2.33;1.30;;;;;;;33.97;32.10;100707.44;4896929;29;20091;-67
2022/08/09 09:27:08;;;;;;;3.22;1.50;;;;;;;34.06;33.13;100706.31;4896706;29;20028;-67
2022/08/09 09:29:36;;;;;;;4.70;2.13;;;;;;;34.30;31.54;100714.44;4897152;29;20036;-67
2022/08/09 09:32:03;;;;;;;2.25;1.13;;;;;;;34.37;32.05;100704.34;4897259;29;20469;-67
2022/08/09 09:34:29;;;;;;;3.10;1.30;;;;;;;34.41;30.83;100705.72;4897012;29;20504;-68
2022/08/09 09:36:58;;;;;;;2.80;1.33;;;;;;;34.50;31.27;100704.59;4896079;29;20035;-68
2022/08/09 09:39:26;;;;;;;5.30;1.45;;;;;;;34.54;30.30;100704.06;4898401;29;20040;-68
2022/08/09 09:41:52;;;;;;;5.30;1.30;;;;;;;34.39;31.21;100691.19;4896503;29;20096;-68
2022/08/09 09:44:29;;;;;;;1.90;1.35;;;;;;;34.43;31.32;100704.47;4896343;29;20036;-68
2022/08/09 09:46:56;;;;;;;2.30;1.40;;;;;;;34.50;31.11;100690.78;4896253;29;20060;-68
2022/08/09 09:49:23;;;;;;;2.42;1.27;;;;;;;34.93;32.22;100701.06;4896387;29;20051;-67
2022/08/09 09:51:48;;;;;;;1.70;0.93;;;;;;;35.03;30.12;100693.34;4896892;29;20029;-67
2022/08/09 09:54:17;;;;;;;2.25;1.13;;;;;;;35.16;30.73;100676.94;4897022;29;20421;-67
2022/08/09 09:56:47;;;;;;;2.10;1.10;;;;;;;35.34;30.81;100687.63;4896433;29;20028;-67
2022/08/09 09:59:19;;;;;;;4.28;1.30;;;;;;;35.31;30.30;100686.09;4896059;29;20139;-67
2022/08/09 10:01:45;;;;;;;2.25;1.20;;;;;;;35.57;29.88;100683.69;4896139;29;20025;-67
2022/08/09 10:04:15;;;;;;;1.73;1.13;;;;;;;35.79;29.04;100687.34;4896082;29;20032;-67
2022/08/09 10:06:43;;;;;;;3.28;1.48;;;;;;;35.83;29.32;100670.13;4895627;29;20436;-67
2022/08/09 10:09:11;;;;;;;2.92;1.63;;;;;;;36.01;29.01;100672.50;4895785;29;20055;-68
2022/08/09 10:11:37;;;;;;;4.25;1.23;;;;;;;36.06;29.64;100671.91;4882293;29;20021;-68
2022/08/09 10:14:03;;;;;;;4.03;1.25;;;;;;;36.26;29.08;100661.88;4889435;29;20032;-68
2022/08/09 10:16:32;;;;;;;3.95;1.20;;;;;;;36.36;28.20;100670.75;4894553;29;20108;-67
2022/08/09 10:19:01;;;;;;;4.70;1.25;;;;;;;36.48;27.86;100669.97;4896580;29;20040;-67
2022/08/09 10:21:28;;;;;;;2.10;1.20;;;;;;;36.22;28.20;100671.63;4896445;29;20095;-67
2022/08/09 10:23:55;;;;;;;2.33;1.33;;;;;;;36.02;28.60;100665.91;4884647;29;20056;-67
2022/08/09 10:26:22;;;;;;;2.40;1.25;;;;;;;35.90;27.95;100663.88;4876006;29;20029;-67
2022/08/09 10:28:48;;;;;;;4.82;1.10;;;;;;;35.94;28.27;100673.47;4875826;29;20660;-67
2022/08/09 10:31:14;;;;;;;2.10;1.30;;;;;;;36.11;28.40;100663.84;4876051;29;20029;-67
2022/08/09 10:33:40;;;;;;;2.47;1.30;;;;;;;36.47;27.75;100665.50;4877799;29;20599;-67
2022/08/09 10:36:09;;;;;;;2.15;1.15;;;;;;;36.56;28.36;100658.72;4875778;29;20044;-67
2022/08/09 10:38:36;;;;;;;4.57;1.25;;;;;;;36.80;27.69;100663.00;4882448;29;20042;-67
2022/08/09 10:41:02;;;;;;;2.05;1.20;;;;;;;36.80;28.39;100660.22;4895706;29;20110;-67
2022/08/09 10:43:28;;;;;;;4.70;1.50;;;;;;;37.10;26.97;100655.28;4886948;29;20041;-67
2022/08/09 10:45:54;;;;;;;2.65;1.10;;;;;;;37.02;26.86;100659.06;4884056;29;20048;-67
2022/08/09 10:48:40;;;;;;;4.38;1.08;;;;;;;36.99;26.67;100648.38;4894428;29;20103;-67
2022/08/09 10:51:08;;;;;;;3.65;1.30;;;;;;;37.12;27.83;100651.22;4877594;29;20024;-68
2022/08/09 10:53:33;;;;;;;4.00;0.95;;;;;;;37.40;27.62;100654.81;4877748;29;20044;-68
2022/08/09 10:56:23;;;;;;;1.83;1.15;;;;;;;37.49;26.49;100655.47;4877469;29;20037;-68
2022/08/09 10:58:53;;;;;;;3.15;1.25;;;;;;;37.34;26.39;100654.78;4877345;29;20362;-68
2022/08/09 11:01:30;;;;;;;3.40;1.45;;;;;;;37.42;26.47;100649.91;4877231;29;20067;-66
2022/08/09 11:04:08;;;;;;;2.92;1.10;;;;;;;37.47;25.92;100658.47;4889290;29;20140;-66
2022/08/09 11:06:36;;;;;;;2.88;1.10;;;;;;;37.55;26.95;100649.94;4895737;29;20036;-65
2022/08/09 11:09:05;;;;;;;1.88;1.27;;;;;;;37.92;26.41;100643.03;4895961;29;20040;-66
2022/08/09 11:11:53;;;;;;;2.83;1.40;;;;;;;38.03;26.74;100643.25;4895625;29;20020;-66
2022/08/09 11:14:54;;;;;;;4.95;1.20;;;;;;;37.78;25.35;100644.94;4894345;29;20578;-65
2022/08/09 11:17:20;;;;;;;2.92;1.40;;;;;;;37.42;25.00;100644.34;4880017;29;20153;-65
2022/08/09 11:19:58;;;;;;;2.78;1.40;;;;;;;37.49;25.18;100641.59;4878512;29;20541;-65
2022/08/09 11:22:39;;;;;;;3.65;1.10;;;;;;;37.55;25.27;100635.19;4880491;29;20025;-66
2022/08/09 11:25:12;;;;;;;2.25;1.10;;;;;;;37.72;25.84;100631.88;4880810;29;20088;-66
2022/08/09 11:27:43;;;;;;;4.15;1.17;;;;;;;37.83;25.17;100620.16;4863795;29;20032;-65